Time;durP1;ratioP1;P1;durP2;ratioP2;P2;SDS_P1;SDS_P2;PMS_P1;PMS_P2;Temp;Humidity;BMP_temperature;BMP_pressure;BME280_temperature;BME280_humidity;BME280_pressure;Samples;Min_cycle;Max_cycle;Signal;HPM_P1;HPM_P2
2022/10/02 00:00:37;;;;;;;26.57;5.00;;;;;14.10;101018.00;;;;13040941;22;20252;-72
2022/10/02 00:05:50;;;;;;;29.70;5.57;;;;;14.20;101017.00;;;;13011607;22;20171;-72
2022/10/02 00:10:56;;;;;;;34.00;6.20;;;;;14.20;101024.00;;;;13041361;22;20194;-73
2022/10/02 00:15:57;;;;;;;34.03;5.47;;;;;14.30;101026.00;;;;13087621;22;20160;-72
2022/10/02 00:21:10;;;;;;;38.53;6.20;;;;;14.30;101020.00;;;;13014910;22;20215;-72
2022/10/02 00:26:21;;;;;;;34.30;5.00;;;;;14.30;101032.00;;;;13116822;22;20174;-72
2022/10/02 00:31:40;;;;;;;32.00;6.20;;;;;14.40;101037.00;;;;13040948;22;20654;-72
2022/10/02 00:36:46;;;;;;;26.57;5.03;;;;;14.40;101033.00;;;;13041623;22;20198;-72
2022/10/02 00:41:53;;;;;;;37.10;5.50;;;;;14.40;101032.00;;;;13041066;22;20192;-73
2022/10/02 00:47:08;;;;;;;27.77;5.53;;;;;14.40;101022.00;;;;13062222;22;20166;-72
2022/10/02 00:52:24;;;;;;;32.47;5.17;;;;;14.40;101040.00;;;;13066091;22;20175;-72
2022/10/02 00:57:53;;;;;;;28.13;5.30;;;;;14.40;101029.00;;;;13015062;22;20292;-73
2022/10/02 01:03:29;;;;;;;31.53;5.57;;;;;14.40;101029.00;;;;13115400;22;20168;-72
2022/10/02 01:08:31;;;;;;;23.90;4.17;;;;;14.40;101036.00;;;;13061409;22;20167;-75
2022/10/02 01:13:32;;;;;;;37.07;6.43;;;;;14.40;101053.00;;;;13038895;22;20191;-74
2022/10/02 01:18:33;;;;;;;37.37;6.77;;;;;14.20;101026.00;;;;13087254;22;20190;-73
2022/10/02 01:24:02;;;;;;;29.03;5.23;;;;;14.00;101025.00;;;;13086913;22;20163;-73
2022/10/02 01:29:03;;;;;;;27.17;4.53;;;;;13.90;101028.00;;;;13089659;22;20163;-73
2022/10/02 01:34:05;;;;;;;26.20;5.40;;;;;13.90;101038.00;;;;13089537;22;20160;-73
2022/10/02 01:39:07;;;;;;;31.63;5.33;;;;;13.90;101048.00;;;;13040851;22;20196;-73
2022/10/02 01:44:09;;;;;;;33.30;6.13;;;;;13.90;101045.00;;;;13089368;22;20556;-73
2022/10/02 01:49:20;;;;;;;25.73;5.40;;;;;13.90;101042.00;;;;13038864;22;20163;-74
2022/10/02 01:54:46;;;;;;;27.17;5.33;;;;;13.90;101034.00;;;;13063811;22;20615;-74
2022/10/02 02:00:08;;;;;;;24.53;4.70;;;;;13.80;101034.00;;;;13041547;22;20191;-74
2022/10/02 02:05:15;;;;;;;28.53;5.70;;;;;13.80;101032.00;;;;13068717;22;20634;-74
2022/10/02 02:10:25;;;;;;;27.73;5.47;;;;;13.70;101041.00;;;;13014530;22;20712;-74
2022/10/02 02:15:28;;;;;;;29.00;5.30;;;;;13.70;101053.00;;;;13042362;22;20168;-74
2022/10/02 02:20:44;;;;;;;24.97;5.13;;;;;13.80;101061.00;;;;13017665;22;20274;-74
2022/10/02 02:25:51;;;;;;;19.53;4.80;;;;;13.80;101066.00;;;;13089658;22;20167;-74
2022/10/02 02:30:54;;;;;;;27.03;4.40;;;;;13.80;101066.00;;;;13089964;22;20175;-73
2022/10/02 02:36:02;;;;;;;19.30;3.97;;;;;13.80;101063.00;;;;13042473;22;20164;-73
2022/10/02 02:41:10;;;;;;;20.47;4.20;;;;;13.80;101066.00;;;;13089226;22;20217;-73
2022/10/02 02:46:23;;;;;;;19.10;4.33;;;;;13.70;101066.00;;;;13089154;22;20160;-73
2022/10/02 02:51:46;;;;;;;23.97;4.10;;;;;13.70;101058.00;;;;13016347;22;20176;-74
2022/10/02 02:56:50;;;;;;;22.10;4.47;;;;;13.70;101066.00;;;;13068118;22;20172;-73
2022/10/02 03:01:52;;;;;;;19.30;4.30;;;;;13.70;101064.00;;;;13018136;22;20191;-73
2022/10/02 03:06:58;;;;;;;24.80;4.73;;;;;13.70;101073.00;;;;13017961;22;20175;-73
2022/10/02 03:12:32;;;;;;;18.00;4.00;;;;;13.70;101079.00;;;;13039115;22;20208;-73
2022/10/02 03:18:16;;;;;;;15.40;4.23;;;;;13.70;101080.00;;;;13088221;22;20184;-73
2022/10/02 03:23:35;;;;;;;20.57;5.37;;;;;13.70;101077.00;;;;13005640;22;20198;-73
2022/10/02 03:29:06;;;;;;;16.57;3.93;;;;;13.70;101072.00;;;;12992820;22;20240;-74
2022/10/02 03:34:07;;;;;;;17.97;4.03;;;;;13.60;101061.00;;;;13065347;22;20183;-74
2022/10/02 03:39:08;;;;;;;17.93;4.80;;;;;13.60;101065.00;;;;13040776;22;20745;-73
2022/10/02 03:44:27;;;;;;;12.53;3.70;;;;;13.50;101063.00;;;;13063851;22;20159;-74
2022/10/02 03:49:28;;;;;;;12.73;3.40;;;;;13.50;101067.00;;;;13041185;22;20171;-73
2022/10/02 03:54:34;;;;;;;12.73;3.47;;;;;13.40;101067.00;;;;13064146;22;20607;-73
2022/10/02 03:59:59;;;;;;;16.83;3.60;;;;;13.40;101077.00;;;;13016750;22;20191;-74
2022/10/02 04:05:33;;;;;;;18.23;3.20;;;;;13.40;101066.00;;;;13062793;22;20334;-74
2022/10/02 04:10:49;;;;;;;16.03;3.37;;;;;13.30;101079.00;;;;13064154;22;20199;-74
2022/10/02 04:16:02;;;;;;;15.93;3.20;;;;;13.30;101086.00;;;;13040633;22;20194;-74
2022/10/02 04:21:36;;;;;;;13.67;2.77;;;;;13.20;101090.00;;;;13041491;22;20194;-74
2022/10/02 04:26:42;;;;;;;14.77;3.10;;;;;13.20;101092.00;;;;13007488;22;20180;-74
2022/10/02 04:31:52;;;;;;;12.07;3.13;;;;;13.20;101103.00;;;;13042360;22;20171;-74
2022/10/02 04:37:12;;;;;;;13.03;2.80;;;;;13.20;101101.00;;;;13065781;22;20813;-74
2022/10/02 04:42:31;;;;;;;19.23;3.33;;;;;13.20;101118.00;;;;13062109;22;20160;-74
2022/10/02 04:47:47;;;;;;;14.30;3.77;;;;;13.20;101109.00;;;;13016010;22;20549;-75
2022/10/02 04:53:16;;;;;;;17.20;4.03;;;;;13.20;101116.00;;;;13040074;22;20171;-74
2022/10/02 04:58:32;;;;;;;16.20;3.57;;;;;13.20;101120.00;;;;13054371;22;20256;-74
2022/10/02 05:03:55;;;;;;;13.57;3.30;;;;;13.20;101118.00;;;;13087928;22;20704;-74
2022/10/02 05:09:08;;;;;;;18.13;3.53;;;;;13.10;101120.00;;;;13065634;22;20218;-74
2022/10/02 05:14:15;;;;;;;14.57;3.10;;;;;13.10;101113.00;;;;13041183;22;20194;-74
2022/10/02 05:19:19;;;;;;;10.17;3.20;;;;;13.10;101123.00;;;;13015171;22;20191;-74
2022/10/02 05:24:53;;;;;;;19.70;4.33;;;;;13.10;101131.00;;;;13063350;22;20267;-74
2022/10/02 05:30:05;;;;;;;20.17;3.20;;;;;13.00;101127.00;;;;12982183;22;20187;-74
2022/10/02 05:35:15;;;;;;;14.10;3.13;;;;;13.00;101133.00;;;;13066151;22;20198;-74
2022/10/02 05:40:29;;;;;;;15.30;4.07;;;;;13.00;101135.00;;;;13014690;22;20193;-74
2022/10/02 05:45:36;;;;;;;14.97;3.50;;;;;13.00;101139.00;;;;13039881;22;20814;-74
2022/10/02 05:50:40;;;;;;;12.70;3.40;;;;;13.00;101147.00;;;;13061399;22;20164;-74
2022/10/02 05:56:00;;;;;;;12.73;3.30;;;;;13.10;101150.00;;;;13060935;22;20225;-74
2022/10/02 06:01:05;;;;;;;14.20;3.00;;;;;13.10;101162.00;;;;13060280;22;20187;-74
2022/10/02 06:06:10;;;;;;;16.67;3.13;;;;;13.20;101173.00;;;;13065896;22;20182;-74
2022/10/02 06:11:45;;;;;;;19.10;3.20;;;;;13.20;101173.00;;;;13059080;22;20515;-74
2022/10/02 06:17:02;;;;;;;20.80;3.43;;;;;13.20;101168.00;;;;13117074;22;20160;-74
2022/10/02 06:22:26;;;;;;;13.90;3.80;;;;;13.20;101160.00;;;;13042355;22;20187;-74
2022/10/02 06:27:50;;;;;;;16.10;4.03;;;;;13.30;101177.00;;;;13042742;22;20228;-74
2022/10/02 06:33:05;;;;;;;8.87;3.23;;;;;13.40;101173.00;;;;13064240;22;20167;-74
2022/10/02 06:38:29;;;;;;;13.60;3.10;;;;;13.50;101191.00;;;;13041328;22;20200;-74
2022/10/02 06:44:14;;;;;;;14.60;2.90;;;;;13.50;101194.00;;;;13084194;22;20265;-74
2022/10/02 06:49:35;;;;;;;19.17;3.53;;;;;13.50;101199.00;;;;13014464;22;20236;-74
2022/10/02 06:54:58;;;;;;;14.20;3.77;;;;;13.50;101214.00;;;;13016783;22;20791;-74
2022/10/02 07:00:15;;;;;;;13.67;3.33;;;;;13.50;101217.00;;;;13089641;22;20622;-74
2022/10/02 07:05:32;;;;;;;10.07;2.77;;;;;13.60;101217.00;;;;13117997;22;20159;-74
2022/10/02 07:10:42;;;;;;;14.93;3.67;;;;;13.70;101214.00;;;;13060672;22;20189;-74
2022/10/02 07:16:20;;;;;;;11.50;2.73;;;;;13.80;101222.00;;;;13088400;22;20671;-74
2022/10/02 07:21:54;;;;;;;11.30;3.70;;;;;13.90;101208.00;;;;13013321;22;20623;-74
2022/10/02 07:27:22;;;;;;;14.73;3.67;;;;;14.00;101205.00;;;;13053492;22;20603;-74
2022/10/02 07:32:54;;;;;;;9.20;3.17;;;;;14.00;101195.00;;;;13113533;22;20594;-74
2022/10/02 07:38:04;;;;;;;12.03;3.10;;;;;14.00;101210.00;;;;13038501;22;20191;-74
2022/10/02 07:43:11;;;;;;;12.27;3.53;;;;;13.90;101198.00;;;;13080651;22;20193;-73
2022/10/02 07:48:22;;;;;;;13.23;3.20;;;;;14.00;101219.00;;;;13079564;22;20194;-74
2022/10/02 07:53:42;;;;;;;13.80;3.10;;;;;14.10;101217.00;;;;13087270;22;20179;-74
2022/10/02 07:58:50;;;;;;;10.27;3.50;;;;;14.30;101233.00;;;;13016155;22;20194;-74
2022/10/02 08:03:59;;;;;;;7.37;3.17;;;;;14.70;101230.00;;;;13059675;22;20226;-74
2022/10/02 08:09:03;;;;;;;10.37;3.90;;;;;14.80;101248.00;;;;13040250;22;20248;-74
2022/10/02 08:14:18;;;;;;;11.97;3.30;;;;;14.80;101267.00;;;;13087069;22;20160;-74
2022/10/02 08:19:28;;;;;;;11.82;3.38;;;;;14.80;101280.00;;;;13039767;22;20226;-74
2022/10/02 08:24:35;;;;;;;7.87;2.77;;;;;14.60;101292.00;;;;13085398;22;20171;-74
2022/10/02 08:29:43;;;;;;;9.83;2.77;;;;;14.30;101301.00;;;;13034723;22;20193;-74
2022/10/02 08:34:45;;;;;;;11.30;2.93;;;;;14.40;101295.00;;;;13014547;22;20171;-74
2022/10/02 08:40:02;;;;;;;10.73;2.67;;;;;14.60;101290.00;;;;13040950;22;20195;-74
2022/10/02 08:45:33;;;;;;;10.33;2.20;;;;;14.70;101288.00;;;;13030650;22;20193;-74
2022/10/02 08:50:46;;;;;;;6.90;2.10;;;;;14.50;101286.00;;;;13088225;22;20187;-74
2022/10/02 08:56:03;;;;;;;6.32;2.13;;;;;14.40;101297.00;;;;13079303;22;20236;-74
2022/10/02 09:01:41;;;;;;;8.03;2.30;;;;;14.80;101285.00;;;;13060640;22;20193;-75
2022/10/02 09:06:57;;;;;;;5.43;1.90;;;;;15.40;101286.00;;;;13036290;22;20159;-75
2022/10/02 09:12:25;;;;;;;6.63;1.90;;;;;15.60;101304.00;;;;13038904;22;20191;-74
2022/10/02 09:17:54;;;;;;;10.30;2.45;;;;;15.50;101298.00;;;;13059627;22;20160;-75
2022/10/02 09:23:01;;;;;;;7.65;1.88;;;;;15.40;101302.00;;;;13086381;22;20638;-75
2022/10/02 09:28:33;;;;;;;8.18;2.20;;;;;15.30;101313.00;;;;13084417;22;20217;-75
2022/10/02 09:33:53;;;;;;;4.53;1.95;;;;;15.30;101310.00;;;;13056673;22;20222;-75
2022/10/02 09:39:32;;;;;;;6.35;2.17;;;;;15.20;101342.00;;;;13053652;22;20180;-75
2022/10/02 09:45:06;;;;;;;6.97;2.60;;;;;15.20;101339.00;;;;13036904;22;20860;-75
2022/10/02 09:50:37;;;;;;;10.23;2.20;;;;;15.70;101326.00;;;;13088461;22;20167;-75
2022/10/02 09:56:33;;;;;;;4.45;2.10;;;;;15.80;101320.00;;;;13035019;22;20186;-75
2022/10/02 10:02:13;;;;;;;4.75;2.40;;;;;15.70;101313.00;;;;12969847;22;20226;-75
2022/10/02 10:07:21;;;;;;;4.07;2.05;;;;;15.60;101328.00;;;;13012404;22;20210;-75
2022/10/02 10:12:48;;;;;;;6.97;2.63;;;;;15.40;101333.00;;;;13063447;22;20183;-75
2022/10/02 10:18:19;;;;;;;4.53;2.47;;;;;15.40;101349.00;;;;13064911;22;20658;-75
2022/10/02 10:23:37;;;;;;;7.95;2.85;;;;;15.40;101343.00;;;;13087735;22;20175;-75
2022/10/02 10:28:42;;;;;;;5.57;2.40;;;;;15.60;101338.00;;;;13087937;22;20286;-75
2022/10/02 10:34:38;;;;;;;5.88;2.78;;;;;15.80;101344.00;;;;13038278;22;20692;-75
2022/10/02 10:40:14;;;;;;;7.65;2.72;;;;;15.90;101357.00;;;;12984848;22;20196;-75
2022/10/02 10:45:29;;;;;;;4.32;2.83;;;;;16.20;101351.00;;;;13086586;22;20189;-75
2022/10/02 10:50:49;;;;;;;4.07;2.30;;;;;16.60;101358.00;;;;13083480;22;20170;-76
2022/10/02 10:56:10;;;;;;;5.60;2.88;;;;;16.60;101364.00;;;;13013994;22;20421;-75
2022/10/02 11:01:57;;;;;;;6.03;2.13;;;;;16.60;101376.00;;;;13014416;22;20580;-75
2022/10/02 11:07:20;;;;;;;5.53;2.25;;;;;16.50;101379.00;;;;13039118;22;20195;-75
2022/10/02 11:13:02;;;;;;;7.43;2.10;;;;;16.60;101394.00;;;;13086372;22;20548;-75
2022/10/02 11:18:34;;;;;;;5.68;2.10;;;;;16.50;101397.00;;;;13066408;22;20192;-75
2022/10/02 11:23:54;;;;;;;7.13;2.00;;;;;16.40;101398.00;;;;13111788;22;20187;-75
2022/10/02 11:29:37;;;;;;;3.35;1.60;;;;;16.60;101391.00;;;;13049065;22;20163;-75
2022/10/02 11:35:18;;;;;;;5.28;1.95;;;;;16.50;101399.00;;;;13063099;22;20491;-75
2022/10/02 11:40:43;;;;;;;7.63;1.83;;;;;16.40;101408.00;;;;13012005;22;20207;-75
2022/10/02 11:45:47;;;;;;;4.38;2.10;;;;;16.30;101410.00;;;;13080080;22;20164;-75
2022/10/02 11:51:13;;;;;;;8.30;2.67;;;;;16.50;101401.00;;;;13036206;22;20187;-75
2022/10/02 11:56:29;;;;;;;4.32;2.53;;;;;16.30;101415.00;;;;13058709;22;20163;-75
2022/10/02 12:01:57;;;;;;;5.63;2.38;;;;;16.10;101409.00;;;;13032919;22;20306;-75
2022/10/02 12:07:20;;;;;;;7.05;2.67;;;;;16.20;101401.00;;;;13036400;22;20187;-75
2022/10/02 12:12:47;;;;;;;9.40;3.45;;;;;16.70;101403.00;;;;13112453;22;20187;-75
2022/10/02 12:18:00;;;;;;;8.63;2.90;;;;;16.40;101414.00;;;;13057379;22;20621;-75
2022/10/02 12:28:32;;;;;;;6.65;3.58;;;;;16.10;101433.00;;;;13010188;22;20632;-76
2022/10/02 12:34:12;;;;;;;7.18;3.00;;;;;16.10;101441.00;;;;13080588;22;20281;-75
2022/10/02 12:39:34;;;;;;;8.43;3.70;;;;;16.00;101444.00;;;;13084708;22;20183;-76
2022/10/02 12:44:51;;;;;;;8.38;3.65;;;;;16.20;101447.00;;;;13041311;22;20171;-76
2022/10/02 12:50:20;;;;;;;6.80;3.47;;;;;16.60;101442.00;;;;13060524;22;20189;-75
2022/10/02 12:55:56;;;;;;;14.48;3.92;;;;;17.10;101439.00;;;;13022816;22;20447;-76
2022/10/02 13:01:09;;;;;;;8.30;3.95;;;;;17.60;101437.00;;;;13065666;22;20191;-76
2022/10/02 13:06:36;;;;;;;6.50;3.97;;;;;17.70;101450.00;;;;13087000;22;20183;-76
2022/10/02 13:12:13;;;;;;;12.18;4.38;;;;;17.80;101451.00;;;;13067751;22;20262;-76
2022/10/02 13:17:45;;;;;;;6.97;5.68;;;;;17.90;101456.00;;;;13007574;22;20573;-76
2022/10/02 13:23:05;;;;;;;13.23;4.95;;;;;17.90;101453.00;;;;13041868;22;20172;-76
2022/10/02 13:28:26;;;;;;;7.03;4.97;;;;;17.90;101452.00;;;;13042260;22;20175;-76
2022/10/02 13:33:41;;;;;;;10.45;5.15;;;;;18.00;101469.00;;;;13063457;22;20297;-76
2022/10/02 13:39:05;;;;;;;8.80;4.82;;;;;18.10;101470.00;;;;13041371;22;20187;-76
2022/10/02 13:44:18;;;;;;;16.48;5.18;;;;;18.10;101470.00;;;;13063702;22;20460;-76
2022/10/02 13:49:52;;;;;;;11.75;5.25;;;;;17.80;101476.00;;;;13041631;22;20178;-76
2022/10/02 13:54:54;;;;;;;11.45;5.85;;;;;17.80;101476.00;;;;13063674;22;20172;-76
2022/10/02 14:00:07;;;;;;;8.38;5.82;;;;;18.10;101478.00;;;;13041666;22;20214;-76
2022/10/02 14:05:30;;;;;;;11.05;6.78;;;;;18.20;101474.00;;;;13090022;22;20159;-76
2022/10/02 14:10:56;;;;;;;12.23;6.65;;;;;17.60;101481.00;;;;13017080;22;20205;-76
2022/10/02 14:16:06;;;;;;;13.75;7.90;;;;;17.10;101477.00;;;;13041862;22;20177;-76
2022/10/02 14:21:29;;;;;;;15.30;8.88;;;;;17.00;101484.00;;;;13088862;22;20194;-76
2022/10/02 14:27:01;;;;;;;15.57;8.60;;;;;17.20;101479.00;;;;13089555;22;20167;-76
2022/10/02 14:32:23;;;;;;;13.88;8.10;;;;;17.60;101487.00;;;;13041004;22;20179;-76
2022/10/02 14:37:32;;;;;;;13.77;8.43;;;;;18.10;101484.00;;;;12991062;22;20262;-76
2022/10/02 14:42:55;;;;;;;16.38;9.05;;;;;18.00;101487.00;;;;13087072;22;20634;-76
2022/10/02 14:48:17;;;;;;;21.80;8.25;;;;;17.40;101490.00;;;;13016182;22;20831;-76
2022/10/02 14:53:39;;;;;;;15.85;8.32;;;;;17.10;101494.00;;;;13116678;22;20164;-76
2022/10/02 14:58:46;;;;;;;17.55;7.47;;;;;16.90;101497.00;;;;13037484;22;20487;-76
2022/10/02 15:04:13;;;;;;;13.43;7.45;;;;;17.30;101493.00;;;;13066895;22;20182;-76
2022/10/02 15:09:25;;;;;;;12.95;7.70;;;;;17.40;101492.00;;;;13062675;22;20266;-76
2022/10/02 15:14:34;;;;;;;14.02;7.50;;;;;17.10;101492.00;;;;13067212;22;20263;-76
2022/10/02 15:19:50;;;;;;;17.67;7.35;;;;;16.70;101502.00;;;;13089255;22;20176;-76
2022/10/02 15:24:57;;;;;;;15.43;7.25;;;;;16.40;101506.00;;;;13015797;22;20170;-76
2022/10/02 15:30:20;;;;;;;11.50;7.30;;;;;16.10;101523.00;;;;13041611;22;20193;-76
2022/10/02 15:35:30;;;;;;;13.48;8.05;;;;;15.80;101528.00;;;;13041270;22;20202;-76
2022/10/02 15:40:59;;;;;;;16.65;7.35;;;;;15.60;101547.00;;;;13016203;22;20685;-75
2022/10/02 15:46:26;;;;;;;12.73;6.93;;;;;15.50;101558.00;;;;13015655;22;20176;-76
2022/10/02 15:51:42;;;;;;;11.93;6.10;;;;;15.40;101561.00;;;;13080520;22;20171;-76
2022/10/02 15:57:06;;;;;;;14.38;6.82;;;;;15.20;101570.00;;;;13016613;22;20454;-76
2022/10/02 16:02:22;;;;;;;15.32;5.28;;;;;15.20;101580.00;;;;13115971;22;20183;-76
2022/10/02 16:07:55;;;;;;;10.13;4.15;;;;;15.20;101571.00;;;;13062854;22;20171;-76
2022/10/02 16:13:05;;;;;;;9.32;3.10;;;;;15.10;101584.00;;;;13062259;22;20233;-76
2022/10/02 16:18:50;;;;;;;11.05;3.38;;;;;15.10;101596.00;;;;13062972;22;20263;-76
2022/10/02 16:24:18;;;;;;;9.50;2.85;;;;;15.00;101598.00;;;;13088168;22;20170;-76
2022/10/02 16:29:22;;;;;;;12.68;2.72;;;;;15.00;101615.00;;;;13039078;22;20171;-75
2022/10/02 16:34:45;;;;;;;9.52;2.70;;;;;14.90;101608.00;;;;13062681;22;20179;-76
2022/10/02 16:40:02;;;;;;;13.57;2.55;;;;;14.80;101616.00;;;;13087358;22;20187;-75
2022/10/02 16:45:22;;;;;;;9.15;3.15;;;;;14.90;101612.00;;;;13015364;22;20175;-75
2022/10/02 16:50:36;;;;;;;10.93;2.45;;;;;14.80;101636.00;;;;13062335;22;20169;-76
2022/10/02 16:55:49;;;;;;;9.35;2.58;;;;;14.70;101643.00;;;;13087526;22;20156;-75
2022/10/02 17:01:22;;;;;;;11.88;2.70;;;;;14.50;101661.00;;;;13064603;22;20222;-75
2022/10/02 17:06:34;;;;;;;11.83;2.77;;;;;14.30;101672.00;;;;13040081;22;20564;-75
2022/10/02 17:12:04;;;;;;;7.30;2.30;;;;;14.00;101680.00;;;;13034258;22;20541;-76
2022/10/02 17:17:49;;;;;;;13.50;3.33;;;;;13.80;101701.00;;;;13087348;22;20182;-76
2022/10/02 17:23:07;;;;;;;12.17;3.27;;;;;13.50;101708.00;;;;12998611;22;20174;-75
2022/10/02 17:28:48;;;;;;;12.90;4.30;;;;;13.30;101732.00;;;;13040019;22;20174;-75
2022/10/02 17:33:56;;;;;;;16.03;4.00;;;;;13.20;101743.00;;;;13039702;22;20733;-75
2022/10/02 17:39:19;;;;;;;13.63;3.80;;;;;13.00;101742.00;;;;13014305;22;20187;-75
2022/10/02 17:44:46;;;;;;;10.40;3.40;;;;;12.90;101752.00;;;;13061491;22;20168;-75
2022/10/02 17:50:36;;;;;;;16.93;3.37;;;;;12.80;101753.00;;;;13058987;22;20216;-75
2022/10/02 18:01:39;;;;;;;15.83;3.87;;;;;12.30;101773.00;;;;13086469;22;20186;-75
2022/10/02 18:07:22;;;;;;;10.57;3.07;;;;;12.00;101777.00;;;;13038518;22;20297;-75
2022/10/02 18:12:34;;;;;;;13.63;3.27;;;;;11.80;101794.00;;;;12979011;22;20269;-75
2022/10/02 18:17:46;;;;;;;10.23;3.30;;;;;11.60;101804.00;;;;13042888;22;20171;-75
2022/10/02 18:23:18;;;;;;;11.60;3.70;;;;;11.50;101821.00;;;;13062957;22;20191;-75
2022/10/02 18:28:40;;;;;;;13.03;3.83;;;;;11.50;101821.00;;;;13088004;22;20638;-75
2022/10/02 18:34:05;;;;;;;12.57;3.97;;;;;11.40;101824.00;;;;13088868;22;20172;-75
2022/10/02 18:39:27;;;;;;;13.83;3.53;;;;;11.40;101826.00;;;;12991707;22;20192;-75
2022/10/02 18:44:43;;;;;;;15.20;3.47;;;;;11.40;101834.00;;;;13068227;22;20167;-75
2022/10/02 18:50:03;;;;;;;12.07;3.60;;;;;11.40;101822.00;;;;13061422;22;20166;-75
2022/10/02 18:55:09;;;;;;;15.20;3.50;;;;;11.30;101823.00;;;;13089633;22;20187;-75
2022/10/02 19:00:20;;;;;;;16.33;5.03;;;;;11.00;101838.00;;;;13042602;22;20194;-75
2022/10/02 19:05:32;;;;;;;16.13;4.97;;;;;10.90;101833.00;;;;13090283;22;20634;-75
2022/10/02 19:10:33;;;;;;;12.17;4.47;;;;;10.80;101840.00;;;;13087607;22;20240;-75
2022/10/02 19:15:35;;;;;;;17.77;4.37;;;;;10.70;101854.00;;;;12989851;22;20394;-75
2022/10/02 19:20:57;;;;;;;7.67;3.67;;;;;10.70;101854.00;;;;13041799;22;20706;-75
2022/10/02 19:26:23;;;;;;;14.67;4.30;;;;;10.70;101873.00;;;;13041035;22;20266;-75
2022/10/02 19:31:28;;;;;;;15.97;4.47;;;;;10.60;101852.00;;;;13087807;22;20857;-75
2022/10/02 19:36:37;;;;;;;21.60;4.77;;;;;10.50;101861.00;;;;13087390;22;20238;-75
2022/10/02 19:41:42;;;;;;;18.00;5.70;;;;;10.40;101881.00;;;;13040926;22;20729;-76
2022/10/02 19:46:48;;;;;;;13.37;5.20;;;;;10.30;101891.00;;;;13061932;22;20606;-75
2022/10/02 19:51:51;;;;;;;18.57;6.03;;;;;10.20;101898.00;;;;13041092;22;20168;-75
2022/10/02 19:57:00;;;;;;;17.87;6.23;;;;;10.20;101911.00;;;;13114939;22;20164;-75
2022/10/02 20:02:22;;;;;;;15.57;7.27;;;;;10.20;101930.00;;;;13060287;22;20729;-75
2022/10/02 20:07:27;;;;;;;17.30;6.53;;;;;10.20;101918.00;;;;13088598;22;20163;-75
2022/10/02 20:12:31;;;;;;;20.97;7.17;;;;;10.10;101923.00;;;;12990593;22;20201;-75
2022/10/02 20:17:35;;;;;;;16.03;6.97;;;;;10.10;101922.00;;;;13015987;22;20630;-75
2022/10/02 20:22:54;;;;;;;20.07;7.63;;;;;10.00;101929.00;;;;13039840;22;20574;-75
2022/10/02 20:28:12;;;;;;;20.77;6.60;;;;;9.90;101932.00;;;;13063449;22;20164;-75
2022/10/02 20:33:23;;;;;;;19.93;7.50;;;;;9.90;101929.00;;;;13013961;22;20214;-75
2022/10/02 20:38:37;;;;;;;16.07;7.67;;;;;9.80;101941.00;;;;13041256;22;20656;-75
2022/10/02 20:43:44;;;;;;;17.37;7.10;;;;;9.60;101944.00;;;;13041249;22;20259;-75
2022/10/02 20:49:10;;;;;;;14.83;7.00;;;;;9.50;101964.00;;;;13039234;22;20168;-75
2022/10/02 20:54:39;;;;;;;18.93;7.33;;;;;9.40;101971.00;;;;13040635;22;20191;-75
2022/10/02 21:00:02;;;;;;;12.93;7.63;;;;;9.30;101976.00;;;;13036729;22;20208;-75
2022/10/02 21:05:23;;;;;;;20.73;7.40;;;;;9.20;101978.00;;;;13062069;22;20166;-75
2022/10/02 21:10:43;;;;;;;21.97;8.07;;;;;9.20;101987.00;;;;13039893;22;20278;-75
2022/10/02 21:15:59;;;;;;;14.33;7.03;;;;;9.10;101988.00;;;;13033864;22;20159;-75
2022/10/02 21:21:49;;;;;;;20.47;7.37;;;;;9.00;101994.00;;;;13061459;22;20191;-75
2022/10/02 21:27:28;;;;;;;25.70;7.97;;;;;9.00;102000.00;;;;12852821;22;20277;-76
2022/10/02 21:32:51;;;;;;;16.77;7.57;;;;;8.90;102008.00;;;;13020826;22;20175;-75
2022/10/02 21:38:12;;;;;;;14.80;7.63;;;;;8.90;102017.00;;;;13087614;22;20240;-75
2022/10/02 21:43:31;;;;;;;21.20;7.57;;;;;8.80;102005.00;;;;13036619;22;20169;-75
2022/10/02 21:48:51;;;;;;;21.13;7.90;;;;;8.80;102009.00;;;;13089969;22;20163;-75
2022/10/02 21:54:03;;;;;;;22.30;8.23;;;;;8.70;102015.00;;;;13014271;22;20570;-75
2022/10/02 21:59:38;;;;;;;16.20;8.07;;;;;8.70;102012.00;;;;13063194;22;20664;-75
2022/10/02 22:05:08;;;;;;;19.33;8.87;;;;;8.70;102036.00;;;;13039530;22;20174;-75
2022/10/02 22:10:28;;;;;;;20.70;8.60;;;;;8.60;102029.00;;;;13041423;22;20199;-75
2022/10/02 22:15:42;;;;;;;18.53;7.40;;;;;8.70;102035.00;;;;13036913;22;20160;-75
2022/10/02 22:20:55;;;;;;;21.80;7.73;;;;;8.70;102052.00;;;;13016934;22;20203;-75
2022/10/02 22:25:56;;;;;;;23.13;7.10;;;;;8.70;102045.00;;;;13016845;22;20718;-75
2022/10/02 22:31:07;;;;;;;24.37;7.33;;;;;8.60;102043.00;;;;13063437;22;20292;-75
2022/10/02 22:36:36;;;;;;;19.47;7.50;;;;;8.60;102050.00;;;;13041612;22;20178;-75
2022/10/02 22:41:50;;;;;;;22.67;9.40;;;;;8.60;102052.00;;;;13088345;22;20187;-75
2022/10/02 22:47:06;;;;;;;20.40;8.90;;;;;8.60;102059.00;;;;13040626;22;20614;-75
2022/10/02 22:52:22;;;;;;;26.30;8.40;;;;;8.80;102087.00;;;;13016820;22;20623;-75
2022/10/02 22:57:33;;;;;;;19.13;8.10;;;;;8.90;102104.00;;;;13041425;22;20711;-75
2022/10/02 23:02:48;;;;;;;20.97;8.57;;;;;9.10;102100.00;;;;13015603;22;20202;-75
2022/10/02 23:08:31;;;;;;;18.67;9.17;;;;;9.20;102086.00;;;;13089180;22;20167;-75
2022/10/02 23:13:44;;;;;;;22.73;9.20;;;;;9.30;102083.00;;;;13032217;22;20232;-75
2022/10/02 23:18:59;;;;;;;22.57;8.63;;;;;9.30;102092.00;;;;13015958;22;20191;-75
2022/10/02 23:24:19;;;;;;;23.70;10.07;;;;;9.30;102103.00;;;;13041046;22;20170;-75
2022/10/02 23:29:46;;;;;;;29.40;9.07;;;;;9.30;102092.00;;;;13041157;22;20514;-75
2022/10/02 23:35:12;;;;;;;21.83;9.13;;;;;9.30;102099.00;;;;13065942;22;20179;-75
2022/10/02 23:46:27;;;;;;;28.83;14.20;;;;;9.10;102099.00;;;;13088906;22;20182;-75
2022/10/02 23:51:59;;;;;;;34.10;16.10;;;;;9.00;102089.00;;;;13066619;22;20305;-75
2022/10/02 23:57:16;;;;;;;28.73;15.00;;;;;9.00;102095.00;;;;13066286;22;20718;-75
